Time;durP1;ratioP1;P1;durP2;ratioP2;P2;SDS_P1;SDS_P2;PMS_P1;PMS_P2;Temp;Humidity;BMP_temperature;BMP_pressure;BME280_temperature;BME280_humidity;BME280_pressure;Samples;Min_cycle;Max_cycle;Signal;HPM_P1;HPM_P2
2021/05/07 00:01:13;;;;;;;6.00;3.67;;;14.50;91.80;;;;;;5035446;28;20381;-71
2021/05/07 00:03:42;;;;;;;10.57;3.97;;;14.60;92.30;;;;;;5053530;28;20032;-71
2021/05/07 00:06:10;;;;;;;6.97;3.67;;;14.60;92.10;;;;;;5035344;28;20028;-71
2021/05/07 00:08:40;;;;;;;5.57;3.42;;;14.60;91.80;;;;;;5035240;28;20033;-71
2021/05/07 00:11:06;;;;;;;8.73;4.03;;;14.60;91.70;;;;;;5053254;28;20025;-69
2021/05/07 00:13:33;;;;;;;14.80;4.05;;;14.60;91.80;;;;;;5052751;28;20470;-71
2021/05/07 00:15:58;;;;;;;7.22;3.33;;;14.60;91.60;;;;;;5053091;28;20025;-72
2021/05/07 00:18:25;;;;;;;6.63;3.42;;;14.70;91.70;;;;;;5053104;28;20035;-71
2021/05/07 00:21:11;;;;;;;5.72;3.22;;;14.70;91.50;;;;;;5053092;28;20029;-73
2021/05/07 00:23:38;;;;;;;10.43;4.68;;;14.70;91.60;;;;;;5034727;28;20079;-73
2021/05/07 00:26:04;;;;;;;12.10;4.70;;;14.70;91.50;;;;;;5035022;28;20116;-71
2021/05/07 00:28:30;;;;;;;13.93;4.45;;;14.70;91.30;;;;;;5052870;28;20029;-71
2021/05/07 00:30:56;;;;;;;8.07;4.03;;;14.80;91.40;;;;;;5035116;28;20029;-71
2021/05/07 00:33:22;;;;;;;10.38;5.10;;;14.70;91.90;;;;;;5035036;28;20037;-71
2021/05/07 00:35:52;;;;;;;9.35;5.28;;;14.70;91.80;;;;;;5052828;28;20428;-71
2021/05/07 00:38:27;;;;;;;10.18;4.32;;;14.70;91.00;;;;;;5052899;28;20029;-72
2021/05/07 00:40:53;;;;;;;9.63;4.78;;;14.70;91.20;;;;;;5059042;28;20083;-71
2021/05/07 00:43:19;;;;;;;9.90;4.05;;;14.70;91.00;;;;;;5059532;28;20028;-71
2021/05/07 00:45:44;;;;;;;10.43;3.80;;;14.70;90.90;;;;;;5059186;28;20031;-70
2021/05/07 00:48:12;;;;;;;6.85;4.00;;;14.80;91.10;;;;;;5059471;28;20040;-71
2021/05/07 00:50:39;;;;;;;7.15;3.53;;;14.80;91.30;;;;;;5059463;28;20021;-71
2021/05/07 00:53:06;;;;;;;6.90;3.85;;;14.80;91.20;;;;;;5059368;28;20078;-71
2021/05/07 00:55:33;;;;;;;9.70;3.15;;;14.70;91.10;;;;;;5041419;28;20025;-70
2021/05/07 00:57:59;;;;;;;5.63;2.88;;;14.80;91.40;;;;;;5059047;28;20045;-70
2021/05/07 01:00:27;;;;;;;5.00;2.65;;;14.70;92.00;;;;;;5059347;28;20035;-69
2021/05/07 01:02:54;;;;;;;3.88;2.75;;;14.70;91.90;;;;;;5059455;28;20033;-71
2021/05/07 01:05:22;;;;;;;5.15;3.17;;;14.70;92.00;;;;;;5059332;28;20025;-69
2021/05/07 01:07:50;;;;;;;6.45;3.58;;;14.70;92.20;;;;;;5059207;28;20053;-69
2021/05/07 01:10:17;;;;;;;9.35;3.90;;;14.60;92.20;;;;;;5041352;28;20070;-69
2021/05/07 01:12:43;;;;;;;7.03;4.00;;;14.60;92.40;;;;;;5041341;28;20025;-69
2021/05/07 01:15:18;;;;;;;5.55;3.35;;;14.60;92.20;;;;;;5059211;28;20078;-70
2021/05/07 01:17:46;;;;;;;8.88;3.45;;;14.60;92.10;;;;;;5059207;28;20457;-70
2021/05/07 01:20:21;;;;;;;6.38;3.05;;;14.60;92.30;;;;;;5059247;28;20030;-71
2021/05/07 01:22:50;;;;;;;4.63;3.15;;;14.60;92.30;;;;;;5059276;28;20492;-71
2021/05/07 01:25:22;;;;;;;4.93;2.95;;;14.60;92.00;;;;;;5059136;28;20078;-70
2021/05/07 01:27:50;;;;;;;6.70;2.45;;;14.60;92.20;;;;;;5059515;28;20527;-70
2021/05/07 01:30:25;;;;;;;2.85;2.40;;;14.60;92.00;;;;;;5041142;28;20025;-69
2021/05/07 01:32:52;;;;;;;5.10;2.75;;;14.60;92.10;;;;;;5059040;28;20025;-70
2021/05/07 01:35:29;;;;;;;5.00;2.83;;;14.60;92.20;;;;;;5059060;28;20036;-71
2021/05/07 01:37:57;;;;;;;5.22;2.70;;;14.60;92.10;;;;;;5041072;28;20389;-70
2021/05/07 01:40:25;;;;;;;5.25;2.90;;;14.60;92.20;;;;;;5059029;28;20039;-70
2021/05/07 01:42:52;;;;;;;3.80;2.53;;;14.60;92.20;;;;;;5059078;28;20354;-69
2021/05/07 01:45:21;;;;;;;8.50;2.75;;;14.60;92.00;;;;;;5059042;28;20098;-69
2021/05/07 01:47:49;;;;;;;4.65;2.80;;;14.60;92.10;;;;;;5040995;28;20363;-71
2021/05/07 01:50:19;;;;;;;5.07;2.63;;;14.70;92.10;;;;;;5039747;28;20049;-70
2021/05/07 01:52:45;;;;;;;5.60;2.75;;;14.70;92.20;;;;;;5037329;28;20025;-70
2021/05/07 01:55:21;;;;;;;4.78;2.72;;;14.70;91.90;;;;;;5055672;28;20033;-70
2021/05/07 01:57:47;;;;;;;5.97;3.05;;;14.70;92.00;;;;;;5037502;28;20493;-69
2021/05/07 02:00:18;;;;;;;4.80;2.42;;;14.70;92.00;;;;;;5055635;28;20033;-70
2021/05/07 02:02:45;;;;;;;5.28;2.85;;;14.70;92.10;;;;;;5037753;28;20035;-69
2021/05/07 02:05:12;;;;;;;3.40;2.17;;;14.60;92.00;;;;;;5055535;28;20120;-70
2021/05/07 02:07:38;;;;;;;5.57;2.67;;;14.70;91.90;;;;;;5055779;28;20021;-69
2021/05/07 02:10:09;;;;;;;3.72;2.53;;;14.70;92.00;;;;;;5055510;28;20032;-69
2021/05/07 02:12:35;;;;;;;4.07;2.53;;;14.70;91.90;;;;;;5037594;28;20102;-68
2021/05/07 02:15:01;;;;;;;5.22;2.47;;;14.70;92.00;;;;;;5037383;28;20489;-70
2021/05/07 02:17:27;;;;;;;6.32;2.65;;;14.80;91.80;;;;;;5037389;28;20033;-70
2021/05/07 02:19:53;;;;;;;4.28;2.60;;;14.80;91.70;;;;;;5055530;28;20040;-70
2021/05/07 02:22:19;;;;;;;5.70;2.60;;;14.80;91.90;;;;;;5055333;28;20025;-69
2021/05/07 02:24:44;;;;;;;4.93;2.15;;;14.80;91.80;;;;;;5055485;28;20032;-69
2021/05/07 02:27:10;;;;;;;4.40;2.92;;;14.80;91.80;;;;;;5055158;28;20039;-71
2021/05/07 02:29:36;;;;;;;3.92;2.47;;;14.80;91.80;;;;;;5055420;28;20143;-71
2021/05/07 02:32:02;;;;;;;4.43;2.38;;;14.90;91.60;;;;;;5037232;28;20362;-72
2021/05/07 02:34:28;;;;;;;3.30;2.38;;;14.90;91.70;;;;;;5037066;28;20033;-72
2021/05/07 02:36:54;;;;;;;5.07;2.72;;;14.90;91.80;;;;;;5054696;28;20028;-70
2021/05/07 02:39:19;;;;;;;7.63;3.30;;;14.90;91.80;;;;;;5037012;28;20044;-70
2021/05/07 02:41:45;;;;;;;9.55;3.80;;;14.90;91.70;;;;;;5036715;28;20048;-70
2021/05/07 02:44:11;;;;;;;9.52;4.68;;;14.90;91.70;;;;;;5036899;28;20036;-69
2021/05/07 02:46:38;;;;;;;8.27;4.13;;;15.00;91.70;;;;;;5036931;28;20111;-69
2021/05/07 02:49:05;;;;;;;5.43;3.33;;;14.90;91.80;;;;;;5036843;28;20025;-70
2021/05/07 02:51:32;;;;;;;7.50;4.07;;;14.90;92.10;;;;;;5036680;28;20120;-69
2021/05/07 02:53:59;;;;;;;11.25;2.63;;;14.90;92.20;;;;;;5054676;28;20037;-70
2021/05/07 02:56:25;;;;;;;6.43;2.55;;;14.90;91.90;;;;;;5054636;28;20373;-69
2021/05/07 02:58:51;;;;;;;8.95;2.45;;;15.00;91.80;;;;;;5036322;28;20041;-69
2021/05/07 03:01:18;;;;;;;5.78;2.45;;;15.00;91.70;;;;;;5054508;28;20054;-71
2021/05/07 03:03:44;;;;;;;5.88;2.42;;;15.00;91.70;;;;;;5054205;28;20033;-69
2021/05/07 03:06:10;;;;;;;7.18;2.40;;;15.00;91.80;;;;;;5054084;28;20031;-69
2021/05/07 03:08:37;;;;;;;3.05;2.20;;;15.00;91.90;;;;;;5054426;28;20029;-69
2021/05/07 03:11:03;;;;;;;4.25;2.13;;;15.00;91.80;;;;;;5054304;28;20054;-70
2021/05/07 03:13:29;;;;;;;5.32;2.53;;;15.10;92.10;;;;;;5054295;28;20043;-71
2021/05/07 03:15:55;;;;;;;3.17;1.88;;;15.00;92.10;;;;;;5036273;28;20037;-71
2021/05/07 03:18:22;;;;;;;4.47;2.08;;;15.00;92.10;;;;;;5054157;28;20079;-70
2021/05/07 03:20:51;;;;;;;4.05;2.05;;;15.00;92.00;;;;;;5054107;28;20029;-70
2021/05/07 03:23:17;;;;;;;4.45;2.08;;;15.00;92.20;;;;;;5054167;28;20029;-70
2021/05/07 03:25:44;;;;;;;2.53;2.20;;;15.00;92.10;;;;;;5054036;28;20087;-70
2021/05/07 03:28:10;;;;;;;6.18;2.45;;;15.10;92.10;;;;;;5054020;28;20039;-70
2021/05/07 03:30:36;;;;;;;3.47;2.00;;;15.10;92.00;;;;;;5054221;28;20104;-70
2021/05/07 03:33:04;;;;;;;3.55;1.92;;;15.10;92.20;;;;;;5053904;28;20025;-70
2021/05/07 03:35:30;;;;;;;5.97;2.45;;;15.10;92.40;;;;;;5035857;28;20033;-70
2021/05/07 03:37:56;;;;;;;4.70;2.30;;;15.10;92.40;;;;;;5035969;28;20771;-70
2021/05/07 03:40:22;;;;;;;3.75;2.00;;;15.10;92.20;;;;;;5054027;28;20043;-69
2021/05/07 03:42:48;;;;;;;3.25;2.10;;;15.10;92.30;;;;;;5035852;28;20025;-69
2021/05/07 03:45:16;;;;;;;7.65;2.70;;;15.10;92.20;;;;;;5035707;28;20060;-70
2021/05/07 03:47:42;;;;;;;3.17;2.20;;;15.10;92.30;;;;;;5053631;28;20021;-69
2021/05/07 03:50:10;;;;;;;4.97;2.22;;;15.10;92.40;;;;;;5035702;28;20065;-70
2021/05/07 03:52:36;;;;;;;6.07;2.15;;;15.10;92.20;;;;;;5053570;28;20384;-70
2021/05/07 03:55:05;;;;;;;6.43;2.53;;;15.10;91.80;;;;;;5053419;28;20041;-69
2021/05/07 03:57:31;;;;;;;2.55;1.90;;;15.10;93.10;;;;;;5053156;28;20494;-69
2021/05/07 03:59:57;;;;;;;5.07;2.80;;;15.10;92.90;;;;;;5053432;28;20036;-69
2021/05/07 04:02:23;;;;;;;8.13;2.42;;;15.20;92.40;;;;;;5053337;28;20029;-70
2021/05/07 04:04:50;;;;;;;6.47;2.60;;;15.20;92.10;;;;;;5053438;28;20032;-69
2021/05/07 04:07:17;;;;;;;7.70;2.90;;;15.20;92.00;;;;;;5053263;28;20025;-71
2021/05/07 04:10:02;;;;;;;5.18;3.13;;;15.20;91.70;;;;;;5053244;28;20021;-70
2021/05/07 04:15:00;;;;;;;;;;;15.20;92.10;;;;;;5052940;28;20465;-69
2021/05/07 04:17:26;;;;;;;8.75;2.80;;;15.30;92.60;;;;;;5053419;28;19911;-70
2021/05/07 04:19:52;;;;;;;5.47;2.38;;;15.30;93.00;;;;;;5053402;28;20104;-69
2021/05/07 04:22:17;;;;;;;3.22;2.28;;;15.30;92.90;;;;;;5053115;28;20028;-70
2021/05/07 04:24:44;;;;;;;5.53;2.30;;;15.30;93.00;;;;;;5053386;28;20036;-69
2021/05/07 04:27:13;;;;;;;6.15;2.70;;;15.40;93.20;;;;;;5053121;28;20079;-69
2021/05/07 04:29:40;;;;;;;9.85;2.60;;;15.40;93.70;;;;;;5035154;28;20380;-71
2021/05/07 04:32:06;;;;;;;4.60;2.40;;;15.40;93.40;;;;;;5053017;28;20029;-71
2021/05/07 04:34:31;;;;;;;7.57;2.45;;;15.40;92.90;;;;;;5052945;28;20037;-70
2021/05/07 04:36:58;;;;;;;9.43;2.85;;;15.50;93.00;;;;;;5052941;28;20377;-69
2021/05/07 04:39:24;;;;;;;5.18;2.17;;;15.50;93.30;;;;;;5052913;28;20029;-69
2021/05/07 04:41:50;;;;;;;4.63;2.38;;;15.60;93.20;;;;;;5035044;28;20025;-70
2021/05/07 04:44:16;;;;;;;7.75;2.22;;;15.70;93.00;;;;;;5034995;28;20037;-70
2021/05/07 04:46:42;;;;;;;4.22;2.55;;;15.80;93.10;;;;;;5052553;28;20036;-71
2021/05/07 04:49:08;;;;;;;7.20;3.28;;;15.80;93.70;;;;;;5052894;28;20060;-70
2021/05/07 04:51:33;;;;;;;5.60;3.03;;;15.90;94.60;;;;;;5053017;28;20025;-70
2021/05/07 04:53:59;;;;;;;5.60;2.70;;;15.90;94.50;;;;;;5052519;28;20066;-70
2021/05/07 04:56:26;;;;;;;7.88;3.15;;;16.00;94.50;;;;;;5052741;28;20029;-70
2021/05/07 04:58:52;;;;;;;10.70;3.45;;;16.00;94.90;;;;;;5052779;28;20132;-70
2021/05/07 05:01:18;;;;;;;8.00;3.25;;;16.10;94.80;;;;;;5034795;28;20481;-70
2021/05/07 05:03:44;;;;;;;8.15;3.80;;;16.10;94.70;;;;;;5034804;28;20025;-70
2021/05/07 05:06:09;;;;;;;7.60;3.58;;;16.20;95.40;;;;;;5034735;28;20032;-68
2021/05/07 05:08:35;;;;;;;9.95;4.38;;;16.20;94.90;;;;;;5052622;28;20108;-71
2021/05/07 05:11:01;;;;;;;14.73;4.63;;;16.30;94.60;;;;;;5034740;28;20381;-70
2021/05/07 05:13:27;;;;;;;14.45;4.95;;;16.30;95.20;;;;;;5052591;28;20025;-69
2021/05/07 05:15:55;;;;;;;11.13;4.60;;;16.40;95.30;;;;;;5052494;28;20033;-69
2021/05/07 05:18:39;;;;;;;10.20;5.05;;;16.40;95.10;;;;;;5052427;28;20033;-71
2021/05/07 05:21:06;;;;;;;8.38;4.35;;;16.40;94.60;;;;;;5052208;28;20430;-69
2021/05/07 05:23:33;;;;;;;9.68;4.30;;;16.50;94.00;;;;;;5052539;28;20025;-69
2021/05/07 05:25:59;;;;;;;8.82;4.80;;;16.50;93.90;;;;;;5054477;28;20099;-69
2021/05/07 05:28:26;;;;;;;7.30;3.85;;;16.60;94.00;;;;;;5056254;28;20029;-69
2021/05/07 05:30:53;;;;;;;10.18;5.30;;;16.70;93.50;;;;;;5038242;28;20083;-70
2021/05/07 05:33:19;;;;;;;20.95;6.63;;;16.80;94.00;;;;;;5056282;28;20132;-71
2021/05/07 05:35:45;;;;;;;9.48;4.80;;;16.90;94.00;;;;;;5056210;28;20073;-70
2021/05/07 05:38:15;;;;;;;10.88;4.78;;;17.10;92.80;;;;;;5037730;28;20460;-69
2021/05/07 05:40:41;;;;;;;13.32;4.50;;;17.20;93.60;;;;;;5055598;28;20083;-68
2021/05/07 05:43:08;;;;;;;8.82;4.50;;;17.30;93.80;;;;;;5038028;28;20025;-67
2021/05/07 05:45:34;;;;;;;10.13;4.47;;;17.40;93.50;;;;;;5055508;28;20021;-67
2021/05/07 05:48:05;;;;;;;9.88;4.28;;;17.50;93.10;;;;;;5037804;28;20078;-71
2021/05/07 05:50:32;;;;;;;11.63;5.03;;;17.60;92.20;;;;;;5037689;28;20036;-69
2021/05/07 05:52:58;;;;;;;8.30;4.47;;;17.70;91.80;;;;;;5054954;28;20021;-69
2021/05/07 05:55:23;;;;;;;14.32;5.20;;;17.80;91.40;;;;;;5035575;28;20404;-69
2021/05/07 05:57:50;;;;;;;7.95;4.32;;;17.90;91.20;;;;;;5053796;28;20489;-71
2021/05/07 06:00:17;;;;;;;7.93;3.60;;;18.00;91.60;;;;;;5054363;28;20037;-67
2021/05/07 06:02:43;;;;;;;9.73;3.85;;;18.10;90.80;;;;;;5054125;28;20017;-69
2021/05/07 06:05:10;;;;;;;8.65;2.63;;;18.20;89.50;;;;;;5053841;28;20473;-70
2021/05/07 06:07:36;;;;;;;3.90;2.88;;;18.30;88.90;;;;;;5036069;28;20032;-70
2021/05/07 06:10:03;;;;;;;6.78;3.40;;;18.40;90.30;;;;;;5054156;28;20025;-71
2021/05/07 06:12:30;;;;;;;10.80;4.65;;;18.40;90.20;;;;;;5053925;28;20021;-69
2021/05/07 06:14:56;;;;;;;12.70;4.57;;;18.50;89.60;;;;;;5035594;28;20041;-67
2021/05/07 06:17:21;;;;;;;15.80;5.30;;;18.50;89.40;;;;;;5035755;28;20393;-69
2021/05/07 06:19:47;;;;;;;11.32;4.43;;;18.60;90.00;;;;;;5035526;28;20025;-69
2021/05/07 06:22:13;;;;;;;24.98;6.30;;;18.70;89.00;;;;;;5054398;28;20032;-67
2021/05/07 06:24:39;;;;;;;185.07;14.95;;;18.70;88.60;;;;;;5055299;28;20465;-67
2021/05/07 06:27:05;;;;;;;62.92;6.53;;;18.90;90.10;;;;;;5036972;28;20120;-70
2021/05/07 06:29:31;;;;;;;242.35;20.55;;;18.90;90.10;;;;;;5054809;28;20112;-69
2021/05/07 06:31:57;;;;;;;15.00;3.63;;;19.00;88.80;;;;;;5054958;28;20021;-70
2021/05/07 06:34:23;;;;;;;14.20;2.80;;;19.10;87.60;;;;;;5037039;28;20041;-67
2021/05/07 06:36:49;;;;;;;13.32;3.10;;;19.10;86.80;;;;;;5054100;28;20025;-68
2021/05/07 06:39:15;;;;;;;29.35;4.20;;;19.20;87.80;;;;;;5036788;28;20111;-67
2021/05/07 06:41:41;;;;;;;11.02;2.95;;;19.30;88.80;;;;;;5054754;28;20112;-69
2021/05/07 06:44:07;;;;;;;9.05;2.47;;;19.30;88.00;;;;;;5036687;28;20037;-70
2021/05/07 06:46:35;;;;;;;14.23;3.83;;;19.40;87.40;;;;;;5054745;28;20087;-69
2021/05/07 06:49:01;;;;;;;30.52;3.92;;;19.60;88.20;;;;;;5054613;28;20119;-68
2021/05/07 06:51:27;;;;;;;8.60;2.53;;;19.70;88.60;;;;;;5054564;28;20544;-70
2021/05/07 06:54:41;;;;;;;3.25;2.20;;;19.90;87.90;;;;;;5052834;28;20047;-67
2021/05/07 06:57:06;;;;;;;171.48;14.60;;;20.10;87.60;;;;;;4978880;28;20392;-68
2021/05/07 06:59:32;;;;;;;60.88;6.63;;;20.30;87.90;;;;;;4972741;28;20066;-67
2021/05/07 07:02:01;;;;;;;14.63;2.97;;;20.50;87.00;;;;;;4973022;28;20122;-69
2021/05/07 07:04:27;;;;;;;8.77;2.03;;;20.70;87.00;;;;;;4972886;28;20090;-69
2021/05/07 07:06:54;;;;;;;4.65;1.58;;;20.90;85.30;;;;;;4973079;28;20121;-68
2021/05/07 07:09:20;;;;;;;3.65;1.55;;;20.90;85.10;;;;;;4973076;28;20054;-68
2021/05/07 07:11:46;;;;;;;7.55;1.52;;;21.00;87.00;;;;;;4973196;28;20070;-70
2021/05/07 07:14:12;;;;;;;1.33;1.23;;;21.00;83.50;;;;;;4972811;28;20146;-68
2021/05/07 07:16:38;;;;;;;10.93;1.90;;;21.10;84.00;;;;;;4956392;28;20476;-70
2021/05/07 07:19:04;;;;;;;10.93;3.10;;;21.20;83.90;;;;;;4972735;28;20113;-70
2021/05/07 07:21:30;;;;;;;8.27;1.58;;;21.20;83.60;;;;;;4972679;28;20038;-68
2021/05/07 07:23:56;;;;;;;17.80;1.20;;;21.20;78.70;;;;;;4956511;28;20042;-64
2021/05/07 07:26:22;;;;;;;4.03;1.20;;;;;;;;;;4972732;28;20066;-66
2021/05/07 07:28:52;;;;;;;3.63;1.10;;;;;;;;;;4972356;28;20058;-69
2021/05/07 07:31:18;;;;;;;4.10;1.50;;;;;;;;;;4972647;28;20027;-65
2021/05/07 07:33:44;;;;;;;3.40;1.30;;;;;;;;;;5003217;28;20041;-65
2021/05/07 07:36:11;;;;;;;5.32;1.60;;;;;;;;;;5032706;28;20079;-65
2021/05/07 07:38:37;;;;;;;1.58;1.25;;;;;;;;;;5033157;28;20045;-67
2021/05/07 07:41:03;;;;;;;3.28;1.48;;;22.50;73.10;;;;;;5032426;28;20033;-66
2021/05/07 07:43:28;;;;;;;1.17;1.10;;;22.60;73.80;;;;;;5031524;28;20466;-69
2021/05/07 07:45:54;;;;;;;2.25;1.02;;;22.60;74.10;;;;;;5031120;28;20053;-67
2021/05/07 07:48:20;;;;;;;1.95;1.25;;;22.60;71.50;;;;;;5030018;28;20374;-68
2021/05/07 07:50:46;;;;;;;3.42;1.13;;;22.70;73.00;;;;;;5031854;28;20378;-65
2021/05/07 07:53:12;;;;;;;3.67;1.50;;;22.70;71.40;;;;;;5031723;28;20057;-68
2021/05/07 07:55:38;;;;;;;2.45;1.10;;;22.60;71.30;;;;;;5032105;28;20052;-66
2021/05/07 07:58:04;;;;;;;3.13;1.25;;;22.50;71.30;;;;;;5040278;28;20556;-67
2021/05/07 08:00:30;;;;;;;1.00;1.00;;;22.90;72.20;;;;;;5052153;28;20465;-67
2021/05/07 08:02:56;;;;;;;5.95;1.15;;;23.20;67.90;;;;;;5051784;28;20025;-65
2021/05/07 08:05:22;;;;;;;1.08;0.80;;;23.30;67.90;;;;;;5052957;28;20036;-66
2021/05/07 08:07:48;;;;;;;2.03;1.02;;;23.20;67.50;;;;;;5052904;28;20453;-68
2021/05/07 08:10:15;;;;;;;2.53;1.33;;;23.20;65.70;;;;;;5035103;28;20028;-65
2021/05/07 08:12:43;;;;;;;2.28;1.52;;;23.30;68.50;;;;;;5034935;28;20036;-66
2021/05/07 08:15:09;;;;;;;3.22;1.20;;;23.30;69.20;;;;;;5053064;28;20037;-66
2021/05/07 08:17:35;;;;;;;1.67;1.20;;;23.50;70.00;;;;;;5053070;28;20043;-68
2021/05/07 08:20:03;;;;;;;1.63;1.02;;;23.60;70.30;;;;;;5034666;28;20021;-66
2021/05/07 08:22:29;;;;;;;2.08;1.55;;;23.90;65.00;;;;;;5035005;28;20029;-67
2021/05/07 08:24:54;;;;;;;1.80;1.15;;;24.30;65.20;;;;;;5052585;28;20040;-70
2021/05/07 08:27:20;;;;;;;1.77;1.13;;;24.30;63.00;;;;;;5053012;28;20261;-65
2021/05/07 08:29:47;;;;;;;4.25;0.95;;;24.30;62.30;;;;;;5052881;28;20036;-66
2021/05/07 08:32:13;;;;;;;2.30;1.17;;;24.30;63.00;;;;;;5052848;28;20033;-66
2021/05/07 08:34:42;;;;;;;2.40;1.27;;;24.10;63.20;;;;;;5034808;28;20029;-72
2021/05/07 08:37:12;;;;;;;1.30;1.20;;;24.10;63.20;;;;;;5053243;28;20029;-69
2021/05/07 08:39:38;;;;;;;2.33;1.10;;;24.00;63.90;;;;;;5052948;28;20023;-70
2021/05/07 08:42:06;;;;;;;3.80;0.98;;;23.90;63.20;;;;;;5034799;28;20117;-68
2021/05/07 08:44:32;;;;;;;2.72;1.20;;;23.80;65.70;;;;;;5034559;28;20037;-70
2021/05/07 08:46:58;;;;;;;1.27;1.00;;;23.80;63.20;;;;;;5052384;28;20052;-67
2021/05/07 08:49:25;;;;;;;2.13;1.20;;;23.80;63.90;;;;;;5052351;28;20021;-68
2021/05/07 08:51:51;;;;;;;1.88;1.17;;;24.00;64.30;;;;;;5034017;28;20029;-69
2021/05/07 08:54:17;;;;;;;2.88;1.25;;;24.20;64.80;;;;;;5052148;28;20489;-67
2021/05/07 08:56:44;;;;;;;1.13;1.02;;;24.20;63.40;;;;;;5034632;28;20025;-69
2021/05/07 08:59:10;;;;;;;1.60;1.38;;;24.60;63.10;;;;;;5034095;28;20103;-68
2021/05/07 09:01:44;;;;;;;1.38;1.13;;;25.00;63.80;;;;;;5055777;28;20028;-66
2021/05/07 09:04:18;;;;;;;1.88;1.20;;;25.00;62.60;;;;;;5038759;28;20040;-70
2021/05/07 09:06:52;;;;;;;1.15;0.80;;;24.80;60.00;;;;;;5056088;28;20057;-68
2021/05/07 09:09:24;;;;;;;2.33;1.27;;;24.70;60.50;;;;;;5056564;28;20028;-68
2021/05/07 09:11:51;;;;;;;2.38;0.98;;;24.50;60.10;;;;;;5055999;28;20073;-68
2021/05/07 09:14:17;;;;;;;1.60;0.88;;;24.30;60.70;;;;;;5054989;28;20033;-67
2021/05/07 09:16:56;;;;;;;4.47;1.05;;;24.40;60.70;;;;;;5054989;28;20029;-66
2021/05/07 09:19:26;;;;;;;0.98;0.82;;;24.50;61.40;;;;;;5054391;28;20066;-66
2021/05/07 09:21:54;;;;;;;2.75;1.08;;;24.60;61.00;;;;;;5053635;28;20044;-68
2021/05/07 09:24:29;;;;;;;5.50;1.13;;;;;;;;;;5033004;28;20441;-67
2021/05/07 09:26:55;;;;;;;3.67;1.15;;;;;;;;;;5035684;28;20024;-66
2021/05/07 09:29:22;;;;;;;3.55;0.80;;;;;;;;;;5036729;28;20112;-67
2021/05/07 09:31:49;;;;;;;1.63;1.20;;;;;;;;;;5036721;28;20063;-67
2021/05/07 09:34:16;;;;;;;1.75;0.90;;;;;;;;;;5054620;28;20831;-69
2021/05/07 09:36:42;;;;;;;3.95;1.05;;;;;;;;;;5054654;28;20021;-69
2021/05/07 09:39:16;;;;;;;1.25;0.93;;;;;;;;;;5034847;28;20017;-69
2021/05/07 09:41:46;;;;;;;2.28;0.73;;;;;;;;;;5055096;28;20033;-67
2021/05/07 09:44:14;;;;;;;2.95;1.33;;;;;;;;;;5037120;28;20378;-68
2021/05/07 09:46:40;;;;;;;2.78;1.00;;;;;;;;;;5055855;28;20078;-70
2021/05/07 09:49:06;;;;;;;1.23;0.80;;;;;;;;;;5055732;28;20024;-70
2021/05/07 09:51:39;;;;;;;1.75;1.02;;;;;;;;;;5055690;28;20420;-69
2021/05/07 09:54:09;;;;;;;2.40;0.73;;;;;;;;;;5035508;28;20381;-72
2021/05/07 09:56:36;;;;;;;0.88;0.70;;;;;;;;;;5054004;28;20021;-76
2021/05/07 09:59:03;;;;;;;6.05;0.93;;;24.80;54.90;;;;;;5037055;28;20112;-68
2021/05/07 10:01:29;;;;;;;1.85;0.80;;;24.70;54.30;;;;;;5055169;28;20032;-69
2021/05/07 10:03:55;;;;;;;0.68;0.50;;;24.50;54.30;;;;;;5054959;28;20472;-69
2021/05/07 10:06:23;;;;;;;1.55;0.93;;;24.30;56.50;;;;;;5055412;28;20029;-67
2021/05/07 10:08:49;;;;;;;1.13;0.90;;;24.00;57.60;;;;;;5037521;28;20082;-71
2021/05/07 10:11:16;;;;;;;1.05;0.98;;;23.90;56.90;;;;;;5036877;28;20025;-68
2021/05/07 10:13:42;;;;;;;1.75;1.10;;;23.90;56.50;;;;;;5054688;28;20032;-68
2021/05/07 10:16:09;;;;;;;2.13;1.20;;;23.90;56.80;;;;;;5055392;28;20473;-69
2021/05/07 10:18:38;;;;;;;3.92;1.08;;;23.90;57.70;;;;;;5037264;28;20029;-69
2021/05/07 10:21:06;;;;;;;0.82;0.73;;;23.90;57.50;;;;;;5037297;28;20040;-70
2021/05/07 10:23:33;;;;;;;3.33;0.90;;;23.90;58.10;;;;;;5055155;28;20033;-68
2021/05/07 10:26:08;;;;;;;0.95;0.85;;;24.00;57.70;;;;;;5055337;28;20112;-68
2021/05/07 10:28:46;;;;;;;2.22;0.60;;;24.30;58.40;;;;;;5054867;28;20158;-69
2021/05/07 10:31:15;;;;;;;1.17;1.08;;;24.30;58.20;;;;;;5054877;28;20461;-67
2021/05/07 10:33:58;;;;;;;1.10;0.93;;;24.10;57.90;;;;;;5054813;28;20370;-69
2021/05/07 10:36:35;;;;;;;1.27;0.93;;;23.80;57.20;;;;;;5054839;28;20504;-68
2021/05/07 10:39:02;;;;;;;1.02;1.00;;;23.70;57.60;;;;;;5054769;28;20047;-69
2021/05/07 10:41:37;;;;;;;1.88;0.85;;;23.50;58.00;;;;;;5054888;28;20043;-70
2021/05/07 10:44:03;;;;;;;0.95;0.80;;;23.50;57.10;;;;;;5054599;28;20043;-71
2021/05/07 10:46:29;;;;;;;1.30;1.20;;;23.40;57.40;;;;;;5054709;28;20033;-69
2021/05/07 10:48:59;;;;;;;3.00;1.42;;;23.50;57.40;;;;;;5036536;28;20219;-72
2021/05/07 10:51:27;;;;;;;1.23;1.20;;;23.50;56.40;;;;;;5054548;28;20029;-71
2021/05/07 10:54:04;;;;;;;2.08;1.20;;;23.60;56.00;;;;;;5036383;28;20083;-70
2021/05/07 10:56:46;;;;;;;2.72;0.80;;;23.80;55.80;;;;;;5054462;28;20039;-70
2021/05/07 10:59:17;;;;;;;3.67;1.05;;;23.90;56.90;;;;;;5054550;28;20405;-71
2021/05/07 11:01:55;;;;;;;0.80;0.80;;;24.00;57.10;;;;;;5054508;28;20036;-70
2021/05/07 11:04:21;;;;;;;2.00;1.13;;;24.20;56.50;;;;;;5053806;28;20032;-70
2021/05/07 11:06:47;;;;;;;3.38;1.20;;;24.40;56.30;;;;;;5054630;28;20040;-70
2021/05/07 11:09:21;;;;;;;1.48;1.15;;;24.60;55.90;;;;;;5054278;28;20029;-70
2021/05/07 11:11:48;;;;;;;1.05;0.80;;;24.90;53.90;;;;;;5036415;28;20029;-70
2021/05/07 11:14:25;;;;;;;0.50;0.50;;;25.00;53.40;;;;;;5054113;28;20025;-71
2021/05/07 11:16:52;;;;;;;3.00;0.70;;;25.40;53.70;;;;;;5053766;28;20064;-69
2021/05/07 11:19:32;;;;;;;1.95;0.90;;;25.30;54.20;;;;;;5036059;28;20039;-67
2021/05/07 11:22:07;;;;;;;0.57;0.50;;;25.30;53.90;;;;;;5053928;28;20061;-72
2021/05/07 11:24:39;;;;;;;2.28;0.88;;;25.40;53.70;;;;;;5053758;28;20032;-69
2021/05/07 11:27:19;;;;;;;1.30;0.80;;;25.40;53.30;;;;;;5035995;28;20029;-68
2021/05/07 11:29:46;;;;;;;2.75;0.90;;;25.50;54.70;;;;;;5036022;28;20025;-70
2021/05/07 11:32:17;;;;;;;0.70;0.65;;;25.60;54.70;;;;;;5054158;28;20044;-69
2021/05/07 11:34:53;;;;;;;1.52;0.93;;;26.80;52.00;;;;;;5053473;28;20044;-70
2021/05/07 11:37:20;;;;;;;1.60;0.82;;;26.90;52.70;;;;;;5035972;28;20029;-69
2021/05/07 11:40:04;;;;;;;1.40;1.00;;;27.80;51.00;;;;;;5035840;28;20036;-70
2021/05/07 11:42:44;;;;;;;3.05;1.10;;;27.60;52.40;;;;;;5051274;28;20020;-70
2021/05/07 11:45:10;;;;;;;0.93;0.80;;;27.40;51.00;;;;;;5031721;28;20056;-71
2021/05/07 11:47:38;;;;;;;3.40;0.90;;;27.30;49.70;;;;;;5053645;28;20028;-70
2021/05/07 11:50:06;;;;;;;1.63;1.00;;;26.90;50.00;;;;;;5053244;28;20028;-69
2021/05/07 11:52:35;;;;;;;1.27;0.70;;;26.60;52.30;;;;;;5053290;28;20064;-72
2021/05/07 11:55:02;;;;;;;0.60;0.55;;;26.70;52.70;;;;;;5053447;28;20501;-71
2021/05/07 11:57:31;;;;;;;1.55;0.73;;;27.10;51.90;;;;;;5035213;28;20052;-71
2021/05/07 11:59:58;;;;;;;2.50;0.80;;;27.40;51.00;;;;;;5053231;28;20024;-70
2021/05/07 12:02:29;;;;;;;1.05;0.80;;;27.20;51.70;;;;;;5035241;28;20384;-71
2021/05/07 12:04:55;;;;;;;1.63;0.90;;;26.70;53.20;;;;;;5052901;28;20082;-70
2021/05/07 12:07:25;;;;;;;0.65;0.65;;;26.10;53.70;;;;;;5054746;28;20272;-69
2021/05/07 12:09:51;;;;;;;1.27;0.75;;;25.60;52.80;;;;;;5054705;28;20033;-69
2021/05/07 12:12:17;;;;;;;1.58;0.80;;;25.20;54.70;;;;;;5034952;28;20028;-69
2021/05/07 12:14:49;;;;;;;3.10;1.00;;;24.80;54.40;;;;;;5035126;28;20466;-69
2021/05/07 12:17:19;;;;;;;;;;;24.70;54.40;;;;;;5053481;28;20025;-71
2021/05/07 12:20:01;;;;;;;2.10;0.77;;;24.50;53.80;;;;;;5053088;28;19909;-72
2021/05/07 12:22:27;;;;;;;1.70;1.00;;;24.30;54.80;;;;;;5050625;28;20025;-69
2021/05/07 12:24:53;;;;;;;1.23;1.08;;;24.10;55.20;;;;;;5051389;28;20037;-69
2021/05/07 12:27:27;;;;;;;3.13;0.73;;;24.00;56.30;;;;;;5034880;28;20027;-70
2021/05/07 12:29:53;;;;;;;0.80;0.75;;;24.00;55.70;;;;;;5053263;28;20465;-68
2021/05/07 12:32:24;;;;;;;1.17;1.00;;;23.90;55.90;;;;;;5052692;28;20063;-69
2021/05/07 12:34:58;;;;;;;2.25;0.80;;;23.90;56.10;;;;;;5052036;28;20120;-67
2021/05/07 12:37:24;;;;;;;0.95;0.75;;;23.80;55.90;;;;;;5050773;28;20116;-68
2021/05/07 12:39:50;;;;;;;1.75;0.80;;;23.70;54.60;;;;;;5034473;28;20032;-69
2021/05/07 12:42:16;;;;;;;2.80;1.20;;;23.60;55.90;;;;;;5050632;28;21418;-70
2021/05/07 12:44:42;;;;;;;1.40;0.80;;;23.60;56.60;;;;;;5052738;28;20117;-68
2021/05/07 12:47:08;;;;;;;2.08;0.90;;;23.70;56.70;;;;;;5034905;28;20060;-69
2021/05/07 12:49:35;;;;;;;1.10;1.00;;;23.70;57.30;;;;;;5052603;28;20067;-66
2021/05/07 12:52:01;;;;;;;2.30;1.00;;;23.70;58.10;;;;;;5052819;28;20029;-68
2021/05/07 12:54:27;;;;;;;2.03;0.88;;;23.60;56.80;;;;;;5034655;28;20128;-67
2021/05/07 12:56:53;;;;;;;1.25;1.05;;;23.50;56.20;;;;;;5052547;28;20482;-69
2021/05/07 12:59:19;;;;;;;1.73;0.85;;;23.40;57.00;;;;;;5052655;28;20045;-68